sensor_id;sensor_type;location;lat;lon;timestamp;P1;durP1;ratioP1;P2;durP2;ratioP2
3066;SDS011;1544;48.834;9.194;2023-05-08T00:01:11;13.30;;;11.97;;
3066;SDS011;1544;48.834;9.194;2023-05-08T00:03:47;9.97;;;9.17;;
3066;SDS011;1544;48.834;9.194;2023-05-08T00:06:24;9.40;;;8.50;;
3066;SDS011;1544;48.834;9.194;2023-05-08T00:09:01;11.23;;;10.23;;
3066;SDS011;1544;48.834;9.194;2023-05-08T00:11:37;9.67;;;8.73;;
3066;SDS011;1544;48.834;9.194;2023-05-08T00:14:13;8.73;;;7.93;;
3066;SDS011;1544;48.834;9.194;2023-05-08T00:16:49;8.40;;;7.70;;
3066;SDS011;1544;48.834;9.194;2023-05-08T00:19:25;8.20;;;7.60;;
3066;SDS011;1544;48.834;9.194;2023-05-08T00:22:01;7.27;;;6.57;;
3066;SDS011;1544;48.834;9.194;2023-05-08T00:24:37;6.70;;;6.30;;
3066;SDS011;1544;48.834;9.194;2023-05-08T00:27:13;7.33;;;6.60;;
3066;SDS011;1544;48.834;9.194;2023-05-08T00:29:50;6.30;;;5.70;;
3066;SDS011;1544;48.834;9.194;2023-05-08T00:32:26;5.50;;;5.10;;
3066;SDS011;1544;48.834;9.194;2023-05-08T00:35:03;5.13;;;4.83;;
3066;SDS011;1544;48.834;9.194;2023-05-08T00:37:39;5.50;;;5.10;;
3066;SDS011;1544;48.834;9.194;2023-05-08T00:40:15;4.47;;;4.10;;
3066;SDS011;1544;48.834;9.194;2023-05-08T00:42:51;3.97;;;3.77;;
3066;SDS011;1544;48.834;9.194;2023-05-08T00:45:36;4.40;;;4.10;;
3066;SDS011;1544;48.834;9.194;2023-05-08T00:48:14;6.30;;;5.23;;
3066;SDS011;1544;48.834;9.194;2023-05-08T00:50:50;8.40;;;7.70;;
3066;SDS011;1544;48.834;9.194;2023-05-08T00:53:27;6.90;;;6.40;;
3066;SDS011;1544;48.834;9.194;2023-05-08T00:56:06;7.97;;;7.37;;
3066;SDS011;1544;48.834;9.194;2023-05-08T00:58:46;7.40;;;6.77;;
3066;SDS011;1544;48.834;9.194;2023-05-08T01:01:23;6.30;;;5.90;;
3066;SDS011;1544;48.834;9.194;2023-05-08T01:03:59;6.90;;;6.50;;
3066;SDS011;1544;48.834;9.194;2023-05-08T01:06:35;7.70;;;7.20;;
3066;SDS011;1544;48.834;9.194;2023-05-08T01:09:11;5.87;;;5.57;;
3066;SDS011;1544;48.834;9.194;2023-05-08T01:15:06;5.10;;;4.70;;
3066;SDS011;1544;48.834;9.194;2023-05-08T01:24:14;5.80;;;5.40;;
3066;SDS011;1544;48.834;9.194;2023-05-08T01:27:14;6.70;;;6.20;;
3066;SDS011;1544;48.834;9.194;2023-05-08T01:33:34;5.53;;;5.20;;
3066;SDS011;1544;48.834;9.194;2023-05-08T01:36:22;4.90;;;4.63;;
3066;SDS011;1544;48.834;9.194;2023-05-08T01:39:19;4.57;;;4.30;;
3066;SDS011;1544;48.834;9.194;2023-05-08T01:42:21;4.67;;;4.37;;
3066;SDS011;1544;48.834;9.194;2023-05-08T01:45:03;4.80;;;4.50;;
3066;SDS011;1544;48.834;9.194;2023-05-08T01:47:59;6.47;;;6.03;;
3066;SDS011;1544;48.834;9.194;2023-05-08T01:50:47;6.60;;;6.00;;
3066;SDS011;1544;48.834;9.194;2023-05-08T01:53:30;6.10;;;5.70;;
3066;SDS011;1544;48.834;9.194;2023-05-08T01:56:35;6.80;;;6.30;;
3066;SDS011;1544;48.834;9.194;2023-05-08T01:59:13;6.17;;;5.73;;
3066;SDS011;1544;48.834;9.194;2023-05-08T02:01:54;5.90;;;5.50;;
3066;SDS011;1544;48.834;9.194;2023-05-08T02:04:33;5.80;;;5.40;;
3066;SDS011;1544;48.834;9.194;2023-05-08T02:07:14;6.60;;;6.10;;
3066;SDS011;1544;48.834;9.194;2023-05-08T02:09:50;6.50;;;5.90;;
3066;SDS011;1544;48.834;9.194;2023-05-08T02:12:28;6.77;;;6.37;;
3066;SDS011;1544;48.834;9.194;2023-05-08T02:15:06;6.30;;;5.70;;
3066;SDS011;1544;48.834;9.194;2023-05-08T02:17:47;6.60;;;6.10;;
3066;SDS011;1544;48.834;9.194;2023-05-08T02:20:25;6.40;;;5.90;;
3066;SDS011;1544;48.834;9.194;2023-05-08T02:23:03;6.80;;;6.30;;
3066;SDS011;1544;48.834;9.194;2023-05-08T02:25:41;6.90;;;6.40;;
3066;SDS011;1544;48.834;9.194;2023-05-08T02:28:19;6.43;;;5.90;;
3066;SDS011;1544;48.834;9.194;2023-05-08T02:30:56;7.50;;;6.90;;
3066;SDS011;1544;48.834;9.194;2023-05-08T02:33:35;6.87;;;6.23;;
3066;SDS011;1544;48.834;9.194;2023-05-08T02:36:17;7.33;;;6.73;;
3066;SDS011;1544;48.834;9.194;2023-05-08T02:38:54;8.00;;;7.30;;
3066;SDS011;1544;48.834;9.194;2023-05-08T02:41:35;6.37;;;5.87;;
3066;SDS011;1544;48.834;9.194;2023-05-08T02:44:13;7.30;;;6.70;;
3066;SDS011;1544;48.834;9.194;2023-05-08T02:46:52;6.23;;;5.83;;
3066;SDS011;1544;48.834;9.194;2023-05-08T02:49:42;6.00;;;5.70;;
3066;SDS011;1544;48.834;9.194;2023-05-08T02:52:46;6.77;;;6.23;;
3066;SDS011;1544;48.834;9.194;2023-05-08T02:55:39;6.87;;;6.37;;
3066;SDS011;1544;48.834;9.194;2023-05-08T02:58:30;7.40;;;6.83;;
3066;SDS011;1544;48.834;9.194;2023-05-08T03:01:19;7.53;;;6.83;;
3066;SDS011;1544;48.834;9.194;2023-05-08T03:04:04;7.40;;;6.80;;
3066;SDS011;1544;48.834;9.194;2023-05-08T03:06:44;7.83;;;7.10;;
3066;SDS011;1544;48.834;9.194;2023-05-08T03:09:22;8.37;;;7.67;;
3066;SDS011;1544;48.834;9.194;2023-05-08T03:12:02;8.10;;;7.40;;
3066;SDS011;1544;48.834;9.194;2023-05-08T03:14:45;8.10;;;7.40;;
3066;SDS011;1544;48.834;9.194;2023-05-08T03:17:55;7.73;;;7.10;;
3066;SDS011;1544;48.834;9.194;2023-05-08T03:20:37;7.30;;;6.70;;
3066;SDS011;1544;48.834;9.194;2023-05-08T03:23:19;7.07;;;6.57;;
3066;SDS011;1544;48.834;9.194;2023-05-08T03:25:57;7.30;;;6.70;;
3066;SDS011;1544;48.834;9.194;2023-05-08T03:28:35;8.80;;;8.10;;
3066;SDS011;1544;48.834;9.194;2023-05-08T03:31:13;7.10;;;6.60;;
3066;SDS011;1544;48.834;9.194;2023-05-08T03:33:53;7.37;;;6.77;;
3066;SDS011;1544;48.834;9.194;2023-05-08T03:36:30;8.43;;;7.67;;
3066;SDS011;1544;48.834;9.194;2023-05-08T03:39:07;9.00;;;8.20;;
3066;SDS011;1544;48.834;9.194;2023-05-08T03:41:43;8.10;;;7.37;;
3066;SDS011;1544;48.834;9.194;2023-05-08T03:44:20;7.57;;;6.97;;
3066;SDS011;1544;48.834;9.194;2023-05-08T03:46:58;6.57;;;6.17;;
3066;SDS011;1544;48.834;9.194;2023-05-08T03:49:34;6.60;;;6.10;;
3066;SDS011;1544;48.834;9.194;2023-05-08T03:52:13;7.40;;;6.90;;
3066;SDS011;1544;48.834;9.194;2023-05-08T03:54:52;6.83;;;6.43;;
3066;SDS011;1544;48.834;9.194;2023-05-08T03:57:43;8.13;;;7.53;;
3066;SDS011;1544;48.834;9.194;2023-05-08T04:04:11;6.80;;;6.40;;
3066;SDS011;1544;48.834;9.194;2023-05-08T04:06:45;8.77;;;8.07;;
3066;SDS011;1544;48.834;9.194;2023-05-08T04:09:38;8.70;;;7.90;;
3066;SDS011;1544;48.834;9.194;2023-05-08T04:12:56;7.80;;;7.20;;
3066;SDS011;1544;48.834;9.194;2023-05-08T04:15:46;9.07;;;8.47;;
3066;SDS011;1544;48.834;9.194;2023-05-08T04:18:28;8.40;;;7.80;;
3066;SDS011;1544;48.834;9.194;2023-05-08T04:21:09;9.00;;;8.30;;
3066;SDS011;1544;48.834;9.194;2023-05-08T04:23:48;9.03;;;8.40;;
3066;SDS011;1544;48.834;9.194;2023-05-08T04:26:26;10.17;;;9.27;;
3066;SDS011;1544;48.834;9.194;2023-05-08T04:29:06;9.93;;;9.13;;
3066;SDS011;1544;48.834;9.194;2023-05-08T04:31:44;9.00;;;8.30;;
3066;SDS011;1544;48.834;9.194;2023-05-08T04:34:21;9.20;;;8.50;;
3066;SDS011;1544;48.834;9.194;2023-05-08T04:36:59;8.13;;;7.53;;
3066;SDS011;1544;48.834;9.194;2023-05-08T04:39:35;7.40;;;6.90;;
3066;SDS011;1544;48.834;9.194;2023-05-08T04:42:11;8.57;;;7.97;;
3066;SDS011;1544;48.834;9.194;2023-05-08T04:44:47;8.03;;;7.43;;
3066;SDS011;1544;48.834;9.194;2023-05-08T04:47:23;8.50;;;7.77;;
3066;SDS011;1544;48.834;9.194;2023-05-08T04:49:59;8.73;;;8.13;;
3066;SDS011;1544;48.834;9.194;2023-05-08T04:52:37;8.70;;;8.00;;
3066;SDS011;1544;48.834;9.194;2023-05-08T04:55:14;8.23;;;7.63;;
3066;SDS011;1544;48.834;9.194;2023-05-08T04:57:50;7.80;;;7.20;;
3066;SDS011;1544;48.834;9.194;2023-05-08T05:00:26;8.20;;;7.60;;
3066;SDS011;1544;48.834;9.194;2023-05-08T05:03:02;8.53;;;7.90;;
3066;SDS011;1544;48.834;9.194;2023-05-08T05:05:38;8.13;;;7.43;;
3066;SDS011;1544;48.834;9.194;2023-05-08T05:08:15;7.93;;;7.40;;
3066;SDS011;1544;48.834;9.194;2023-05-08T05:10:51;10.43;;;9.63;;
3066;SDS011;1544;48.834;9.194;2023-05-08T05:13:27;7.70;;;7.20;;
3066;SDS011;1544;48.834;9.194;2023-05-08T05:16:04;7.97;;;7.43;;
3066;SDS011;1544;48.834;9.194;2023-05-08T05:18:40;6.93;;;6.43;;
3066;SDS011;1544;48.834;9.194;2023-05-08T05:21:16;8.63;;;7.93;;
3066;SDS011;1544;48.834;9.194;2023-05-08T05:23:52;8.83;;;8.20;;
3066;SDS011;1544;48.834;9.194;2023-05-08T05:26:28;9.10;;;8.40;;
3066;SDS011;1544;48.834;9.194;2023-05-08T05:29:04;9.20;;;8.50;;
3066;SDS011;1544;48.834;9.194;2023-05-08T05:31:40;8.47;;;7.87;;
3066;SDS011;1544;48.834;9.194;2023-05-08T05:34:16;7.37;;;6.80;;
3066;SDS011;1544;48.834;9.194;2023-05-08T05:36:52;8.00;;;7.33;;
3066;SDS011;1544;48.834;9.194;2023-05-08T05:39:28;12.50;;;11.43;;
3066;SDS011;1544;48.834;9.194;2023-05-08T05:42:04;10.50;;;9.60;;
3066;SDS011;1544;48.834;9.194;2023-05-08T05:44:40;9.30;;;8.50;;
3066;SDS011;1544;48.834;9.194;2023-05-08T05:47:17;9.60;;;8.80;;
3066;SDS011;1544;48.834;9.194;2023-05-08T05:49:53;8.10;;;7.50;;
3066;SDS011;1544;48.834;9.194;2023-05-08T05:52:29;7.77;;;7.27;;
3066;SDS011;1544;48.834;9.194;2023-05-08T05:55:05;7.73;;;7.13;;
3066;SDS011;1544;48.834;9.194;2023-05-08T05:57:41;8.07;;;7.47;;
3066;SDS011;1544;48.834;9.194;2023-05-08T06:00:17;10.50;;;9.70;;
3066;SDS011;1544;48.834;9.194;2023-05-08T06:02:59;7.57;;;7.07;;
3066;SDS011;1544;48.834;9.194;2023-05-08T06:05:37;8.90;;;8.20;;
3066;SDS011;1544;48.834;9.194;2023-05-08T06:08:14;8.97;;;8.17;;
3066;SDS011;1544;48.834;9.194;2023-05-08T06:10:52;7.10;;;6.50;;
3066;SDS011;1544;48.834;9.194;2023-05-08T06:13:27;7.43;;;6.93;;
3066;SDS011;1544;48.834;9.194;2023-05-08T06:16:04;7.20;;;6.70;;
3066;SDS011;1544;48.834;9.194;2023-05-08T06:18:40;6.60;;;6.20;;
3066;SDS011;1544;48.834;9.194;2023-05-08T06:21:17;6.10;;;5.70;;
3066;SDS011;1544;48.834;9.194;2023-05-08T06:23:53;6.77;;;6.37;;
3066;SDS011;1544;48.834;9.194;2023-05-08T06:26:29;7.10;;;6.60;;
3066;SDS011;1544;48.834;9.194;2023-05-08T06:29:05;6.53;;;6.07;;
3066;SDS011;1544;48.834;9.194;2023-05-08T06:31:41;7.00;;;6.50;;
3066;SDS011;1544;48.834;9.194;2023-05-08T06:34:17;8.40;;;7.70;;
3066;SDS011;1544;48.834;9.194;2023-05-08T06:36:52;7.30;;;6.80;;
3066;SDS011;1544;48.834;9.194;2023-05-08T06:39:28;8.47;;;7.80;;
3066;SDS011;1544;48.834;9.194;2023-05-08T06:42:04;7.80;;;7.30;;
3066;SDS011;1544;48.834;9.194;2023-05-08T06:44:45;7.47;;;6.97;;
3066;SDS011;1544;48.834;9.194;2023-05-08T06:47:21;7.50;;;6.90;;
3066;SDS011;1544;48.834;9.194;2023-05-08T06:49:58;6.97;;;6.33;;
3066;SDS011;1544;48.834;9.194;2023-05-08T06:52:35;7.60;;;6.90;;
3066;SDS011;1544;48.834;9.194;2023-05-08T06:55:11;7.53;;;6.93;;
3066;SDS011;1544;48.834;9.194;2023-05-08T06:57:47;6.20;;;5.83;;
3066;SDS011;1544;48.834;9.194;2023-05-08T07:00:23;7.23;;;6.73;;
3066;SDS011;1544;48.834;9.194;2023-05-08T07:02:59;8.67;;;7.97;;
3066;SDS011;1544;48.834;9.194;2023-05-08T07:05:35;6.83;;;6.40;;
3066;SDS011;1544;48.834;9.194;2023-05-08T07:08:11;7.10;;;6.40;;
3066;SDS011;1544;48.834;9.194;2023-05-08T07:10:47;6.47;;;5.90;;
3066;SDS011;1544;48.834;9.194;2023-05-08T07:13:23;7.40;;;6.80;;
3066;SDS011;1544;48.834;9.194;2023-05-08T07:15:59;7.17;;;6.50;;
3066;SDS011;1544;48.834;9.194;2023-05-08T07:18:35;7.30;;;6.80;;
3066;SDS011;1544;48.834;9.194;2023-05-08T07:21:11;6.17;;;5.70;;
3066;SDS011;1544;48.834;9.194;2023-05-08T07:23:47;6.83;;;6.33;;
3066;SDS011;1544;48.834;9.194;2023-05-08T07:26:25;6.57;;;6.17;;
3066;SDS011;1544;48.834;9.194;2023-05-08T07:29:01;6.20;;;5.80;;
3066;SDS011;1544;48.834;9.194;2023-05-08T07:31:38;6.43;;;6.00;;
3066;SDS011;1544;48.834;9.194;2023-05-08T07:34:15;7.50;;;7.00;;
3066;SDS011;1544;48.834;9.194;2023-05-08T07:36:51;7.30;;;6.67;;
3066;SDS011;1544;48.834;9.194;2023-05-08T07:39:27;7.10;;;6.50;;
3066;SDS011;1544;48.834;9.194;2023-05-08T07:42:03;7.43;;;7.00;;
3066;SDS011;1544;48.834;9.194;2023-05-08T07:44:38;9.10;;;8.30;;
3066;SDS011;1544;48.834;9.194;2023-05-08T07:47:28;8.00;;;7.50;;
3066;SDS011;1544;48.834;9.194;2023-05-08T07:50:04;7.70;;;7.20;;
3066;SDS011;1544;48.834;9.194;2023-05-08T07:52:41;8.97;;;8.27;;
3066;SDS011;1544;48.834;9.194;2023-05-08T07:55:17;9.90;;;9.13;;
3066;SDS011;1544;48.834;9.194;2023-05-08T07:57:54;8.33;;;7.73;;
3066;SDS011;1544;48.834;9.194;2023-05-08T08:00:30;8.87;;;8.17;;
3066;SDS011;1544;48.834;9.194;2023-05-08T08:03:06;7.83;;;7.23;;
3066;SDS011;1544;48.834;9.194;2023-05-08T08:05:42;9.07;;;8.27;;
3066;SDS011;1544;48.834;9.194;2023-05-08T08:08:18;9.10;;;8.37;;
3066;SDS011;1544;48.834;9.194;2023-05-08T08:10:54;9.63;;;8.83;;
3066;SDS011;1544;48.834;9.194;2023-05-08T08:13:30;8.37;;;7.63;;
3066;SDS011;1544;48.834;9.194;2023-05-08T08:16:07;7.80;;;7.20;;
3066;SDS011;1544;48.834;9.194;2023-05-08T08:18:43;6.93;;;6.23;;
3066;SDS011;1544;48.834;9.194;2023-05-08T08:21:19;6.90;;;6.40;;
3066;SDS011;1544;48.834;9.194;2023-05-08T08:23:54;6.37;;;5.97;;
3066;SDS011;1544;48.834;9.194;2023-05-08T08:26:31;5.90;;;5.50;;
3066;SDS011;1544;48.834;9.194;2023-05-08T08:29:06;5.20;;;4.90;;
3066;SDS011;1544;48.834;9.194;2023-05-08T08:31:43;5.67;;;5.27;;
3066;SDS011;1544;48.834;9.194;2023-05-08T08:34:18;6.13;;;5.80;;
3066;SDS011;1544;48.834;9.194;2023-05-08T08:36:54;5.00;;;4.70;;
3066;SDS011;1544;48.834;9.194;2023-05-08T08:39:33;5.67;;;5.27;;
3066;SDS011;1544;48.834;9.194;2023-05-08T08:42:10;5.60;;;5.23;;
3066;SDS011;1544;48.834;9.194;2023-05-08T08:44:46;6.93;;;6.27;;
3066;SDS011;1544;48.834;9.194;2023-05-08T08:47:24;4.83;;;4.53;;
3066;SDS011;1544;48.834;9.194;2023-05-08T08:50:04;4.80;;;4.50;;
3066;SDS011;1544;48.834;9.194;2023-05-08T08:55:39;5.60;;;5.30;;
3066;SDS011;1544;48.834;9.194;2023-05-08T08:58:25;5.37;;;5.07;;
3066;SDS011;1544;48.834;9.194;2023-05-08T09:01:20;4.70;;;4.40;;
3066;SDS011;1544;48.834;9.194;2023-05-08T09:03:58;5.27;;;4.87;;
3066;SDS011;1544;48.834;9.194;2023-05-08T09:06:35;3.87;;;3.67;;
3066;SDS011;1544;48.834;9.194;2023-05-08T09:09:12;4.97;;;4.70;;
3066;SDS011;1544;48.834;9.194;2023-05-08T09:11:48;4.30;;;4.10;;
3066;SDS011;1544;48.834;9.194;2023-05-08T09:14:27;4.33;;;4.10;;
3066;SDS011;1544;48.834;9.194;2023-05-08T09:17:03;4.37;;;4.17;;
3066;SDS011;1544;48.834;9.194;2023-05-08T09:19:39;4.00;;;3.80;;
3066;SDS011;1544;48.834;9.194;2023-05-08T09:22:16;5.43;;;5.00;;
3066;SDS011;1544;48.834;9.194;2023-05-08T09:24:53;6.70;;;6.20;;
3066;SDS011;1544;48.834;9.194;2023-05-08T09:27:33;8.20;;;7.60;;
3066;SDS011;1544;48.834;9.194;2023-05-08T09:30:11;7.77;;;7.20;;
3066;SDS011;1544;48.834;9.194;2023-05-08T09:32:51;8.60;;;8.00;;
3066;SDS011;1544;48.834;9.194;2023-05-08T09:35:36;7.40;;;6.70;;
3066;SDS011;1544;48.834;9.194;2023-05-08T09:41:13;7.63;;;7.07;;
3066;SDS011;1544;48.834;9.194;2023-05-08T09:44:03;7.30;;;6.80;;
3066;SDS011;1544;48.834;9.194;2023-05-08T09:46:41;6.83;;;6.43;;
3066;SDS011;1544;48.834;9.194;2023-05-08T09:49:17;6.60;;;6.10;;
3066;SDS011;1544;48.834;9.194;2023-05-08T09:51:53;8.10;;;7.27;;
3066;SDS011;1544;48.834;9.194;2023-05-08T09:54:29;6.83;;;6.40;;
3066;SDS011;1544;48.834;9.194;2023-05-08T09:57:11;10.53;;;9.50;;
3066;SDS011;1544;48.834;9.194;2023-05-08T09:59:47;8.47;;;7.83;;
3066;SDS011;1544;48.834;9.194;2023-05-08T10:02:23;7.30;;;6.80;;
3066;SDS011;1544;48.834;9.194;2023-05-08T10:05:00;8.20;;;7.40;;
3066;SDS011;1544;48.834;9.194;2023-05-08T10:07:38;7.63;;;7.03;;
3066;SDS011;1544;48.834;9.194;2023-05-08T10:10:21;8.33;;;7.43;;
3066;SDS011;1544;48.834;9.194;2023-05-08T10:13:01;8.50;;;7.30;;
3066;SDS011;1544;48.834;9.194;2023-05-08T10:15:39;8.57;;;7.87;;
3066;SDS011;1544;48.834;9.194;2023-05-08T10:18:18;8.27;;;7.60;;
3066;SDS011;1544;48.834;9.194;2023-05-08T10:20:58;8.17;;;7.37;;
3066;SDS011;1544;48.834;9.194;2023-05-08T10:23:41;8.67;;;7.97;;
3066;SDS011;1544;48.834;9.194;2023-05-08T10:26:21;10.97;;;9.90;;
3066;SDS011;1544;48.834;9.194;2023-05-08T10:29:06;7.67;;;7.17;;
3066;SDS011;1544;48.834;9.194;2023-05-08T10:31:48;8.87;;;8.17;;
3066;SDS011;1544;48.834;9.194;2023-05-08T10:34:30;7.30;;;6.70;;
3066;SDS011;1544;48.834;9.194;2023-05-08T10:37:09;6.30;;;5.90;;
3066;SDS011;1544;48.834;9.194;2023-05-08T10:39:46;8.17;;;7.50;;
3066;SDS011;1544;48.834;9.194;2023-05-08T10:42:23;5.80;;;5.40;;
3066;SDS011;1544;48.834;9.194;2023-05-08T10:45:03;7.23;;;6.63;;
3066;SDS011;1544;48.834;9.194;2023-05-08T10:51:08;5.67;;;5.20;;
3066;SDS011;1544;48.834;9.194;2023-05-08T10:53:58;7.97;;;7.20;;
3066;SDS011;1544;48.834;9.194;2023-05-08T10:56:42;7.07;;;6.47;;
3066;SDS011;1544;48.834;9.194;2023-05-08T10:59:18;6.70;;;6.23;;
3066;SDS011;1544;48.834;9.194;2023-05-08T11:02:02;6.00;;;5.50;;
3066;SDS011;1544;48.834;9.194;2023-05-08T11:04:40;6.90;;;6.40;;
3066;SDS011;1544;48.834;9.194;2023-05-08T11:07:28;7.20;;;6.50;;
3066;SDS011;1544;48.834;9.194;2023-05-08T11:10:31;7.57;;;7.07;;
3066;SDS011;1544;48.834;9.194;2023-05-08T11:13:11;6.47;;;5.97;;
3066;SDS011;1544;48.834;9.194;2023-05-08T11:15:50;6.57;;;6.17;;
3066;SDS011;1544;48.834;9.194;2023-05-08T11:18:27;6.53;;;6.13;;
3066;SDS011;1544;48.834;9.194;2023-05-08T11:21:22;6.87;;;6.27;;
3066;SDS011;1544;48.834;9.194;2023-05-08T11:23:59;6.00;;;5.53;;
3066;SDS011;1544;48.834;9.194;2023-05-08T11:26:47;6.40;;;5.80;;
3066;SDS011;1544;48.834;9.194;2023-05-08T11:29:23;8.07;;;7.30;;
3066;SDS011;1544;48.834;9.194;2023-05-08T11:31:59;6.23;;;5.83;;
3066;SDS011;1544;48.834;9.194;2023-05-08T11:37:18;6.47;;;6.00;;
3066;SDS011;1544;48.834;9.194;2023-05-08T11:39:58;7.00;;;6.50;;
3066;SDS011;1544;48.834;9.194;2023-05-08T11:46:54;6.40;;;6.00;;
3066;SDS011;1544;48.834;9.194;2023-05-08T11:49:30;6.17;;;5.60;;
3066;SDS011;1544;48.834;9.194;2023-05-08T11:52:06;6.80;;;6.40;;
3066;SDS011;1544;48.834;9.194;2023-05-08T11:54:42;6.23;;;5.73;;
3066;SDS011;1544;48.834;9.194;2023-05-08T11:57:18;6.73;;;6.33;;
3066;SDS011;1544;48.834;9.194;2023-05-08T11:59:55;6.57;;;5.70;;
3066;SDS011;1544;48.834;9.194;2023-05-08T12:02:37;6.90;;;6.40;;
3066;SDS011;1544;48.834;9.194;2023-05-08T12:05:15;6.57;;;6.17;;
3066;SDS011;1544;48.834;9.194;2023-05-08T12:08:01;6.30;;;5.80;;
3066;SDS011;1544;48.834;9.194;2023-05-08T12:13:22;6.30;;;5.90;;
3066;SDS011;1544;48.834;9.194;2023-05-08T12:16:04;5.70;;;5.40;;
3066;SDS011;1544;48.834;9.194;2023-05-08T12:18:41;3.93;;;3.83;;
3066;SDS011;1544;48.834;9.194;2023-05-08T12:21:18;5.70;;;5.30;;
3066;SDS011;1544;48.834;9.194;2023-05-08T12:23:56;7.40;;;6.90;;
3066;SDS011;1544;48.834;9.194;2023-05-08T12:26:35;7.83;;;5.93;;
3066;SDS011;1544;48.834;9.194;2023-05-08T12:29:12;6.73;;;6.33;;
3066;SDS011;1544;48.834;9.194;2023-05-08T12:31:48;6.03;;;5.60;;
3066;SDS011;1544;48.834;9.194;2023-05-08T12:34:25;6.43;;;6.00;;
3066;SDS011;1544;48.834;9.194;2023-05-08T12:37:02;5.57;;;5.27;;
3066;SDS011;1544;48.834;9.194;2023-05-08T12:39:42;7.20;;;6.70;;
3066;SDS011;1544;48.834;9.194;2023-05-08T12:42:18;3.83;;;3.60;;
3066;SDS011;1544;48.834;9.194;2023-05-08T12:44:56;5.03;;;4.73;;
3066;SDS011;1544;48.834;9.194;2023-05-08T12:47:32;6.67;;;6.20;;
3066;SDS011;1544;48.834;9.194;2023-05-08T12:50:08;4.47;;;4.27;;
3066;SDS011;1544;48.834;9.194;2023-05-08T12:52:46;4.57;;;4.37;;
3066;SDS011;1544;48.834;9.194;2023-05-08T12:55:26;6.30;;;6.00;;
3066;SDS011;1544;48.834;9.194;2023-05-08T12:58:11;6.47;;;6.07;;
3066;SDS011;1544;48.834;9.194;2023-05-08T13:00:50;5.53;;;5.23;;
3066;SDS011;1544;48.834;9.194;2023-05-08T13:03:28;7.50;;;6.93;;
3066;SDS011;1544;48.834;9.194;2023-05-08T13:06:04;8.40;;;7.80;;
3066;SDS011;1544;48.834;9.194;2023-05-08T13:08:41;7.30;;;6.80;;
3066;SDS011;1544;48.834;9.194;2023-05-08T13:11:26;6.43;;;5.93;;
3066;SDS011;1544;48.834;9.194;2023-05-08T13:14:07;9.03;;;8.40;;
3066;SDS011;1544;48.834;9.194;2023-05-08T13:16:46;10.70;;;9.80;;
3066;SDS011;1544;48.834;9.194;2023-05-08T13:19:22;10.90;;;10.00;;
3066;SDS011;1544;48.834;9.194;2023-05-08T13:21:58;9.07;;;8.40;;
3066;SDS011;1544;48.834;9.194;2023-05-08T13:24:34;8.33;;;7.77;;
3066;SDS011;1544;48.834;9.194;2023-05-08T13:27:10;9.27;;;8.63;;
3066;SDS011;1544;48.834;9.194;2023-05-08T13:29:47;9.33;;;8.33;;
3066;SDS011;1544;48.834;9.194;2023-05-08T13:32:23;10.30;;;9.40;;
3066;SDS011;1544;48.834;9.194;2023-05-08T13:34:59;9.60;;;8.83;;
3066;SDS011;1544;48.834;9.194;2023-05-08T13:37:35;11.73;;;10.60;;
3066;SDS011;1544;48.834;9.194;2023-05-08T13:40:11;12.57;;;11.27;;
3066;SDS011;1544;48.834;9.194;2023-05-08T13:42:48;16.33;;;14.63;;
3066;SDS011;1544;48.834;9.194;2023-05-08T13:45:25;16.10;;;13.50;;
3066;SDS011;1544;48.834;9.194;2023-05-08T13:48:00;16.87;;;15.07;;
3066;SDS011;1544;48.834;9.194;2023-05-08T13:50:36;14.77;;;13.43;;
3066;SDS011;1544;48.834;9.194;2023-05-08T13:53:12;16.37;;;14.67;;
3066;SDS011;1544;48.834;9.194;2023-05-08T13:55:48;15.83;;;14.23;;
3066;SDS011;1544;48.834;9.194;2023-05-08T13:58:24;18.10;;;16.30;;
3066;SDS011;1544;48.834;9.194;2023-05-08T14:01:00;16.93;;;14.23;;
3066;SDS011;1544;48.834;9.194;2023-05-08T14:03:56;17.00;;;15.30;;
3066;SDS011;1544;48.834;9.194;2023-05-08T14:06:32;14.67;;;13.27;;
3066;SDS011;1544;48.834;9.194;2023-05-08T14:09:08;16.13;;;14.70;;
3066;SDS011;1544;48.834;9.194;2023-05-08T14:11:44;15.90;;;14.50;;
3066;SDS011;1544;48.834;9.194;2023-05-08T14:14:20;15.70;;;14.20;;
3066;SDS011;1544;48.834;9.194;2023-05-08T14:16:56;16.70;;;15.00;;
3066;SDS011;1544;48.834;9.194;2023-05-08T14:19:32;15.50;;;14.13;;
3066;SDS011;1544;48.834;9.194;2023-05-08T14:22:08;14.10;;;12.80;;
3066;SDS011;1544;48.834;9.194;2023-05-08T14:24:44;14.20;;;12.93;;
3066;SDS011;1544;48.834;9.194;2023-05-08T14:27:20;13.73;;;12.63;;
3066;SDS011;1544;48.834;9.194;2023-05-08T14:29:56;13.97;;;12.63;;
3066;SDS011;1544;48.834;9.194;2023-05-08T14:32:32;16.30;;;14.80;;
3066;SDS011;1544;48.834;9.194;2023-05-08T14:35:08;13.07;;;11.97;;
3066;SDS011;1544;48.834;9.194;2023-05-08T14:37:44;11.67;;;10.77;;
3066;SDS011;1544;48.834;9.194;2023-05-08T14:40:20;14.67;;;13.40;;
3066;SDS011;1544;48.834;9.194;2023-05-08T14:42:58;12.03;;;11.03;;
3066;SDS011;1544;48.834;9.194;2023-05-08T14:45:34;15.50;;;14.20;;
3066;SDS011;1544;48.834;9.194;2023-05-08T14:48:10;13.10;;;11.80;;
3066;SDS011;1544;48.834;9.194;2023-05-08T14:50:46;13.07;;;11.97;;
3066;SDS011;1544;48.834;9.194;2023-05-08T14:53:22;12.23;;;11.20;;
3066;SDS011;1544;48.834;9.194;2023-05-08T14:55:59;11.00;;;10.10;;
3066;SDS011;1544;48.834;9.194;2023-05-08T14:58:35;13.27;;;12.13;;
3066;SDS011;1544;48.834;9.194;2023-05-08T15:01:11;13.67;;;12.57;;
3066;SDS011;1544;48.834;9.194;2023-05-08T15:03:47;13.67;;;12.47;;
3066;SDS011;1544;48.834;9.194;2023-05-08T15:06:27;11.03;;;10.13;;
3066;SDS011;1544;48.834;9.194;2023-05-08T15:09:06;12.50;;;11.40;;
3066;SDS011;1544;48.834;9.194;2023-05-08T15:11:43;13.27;;;12.17;;
3066;SDS011;1544;48.834;9.194;2023-05-08T15:14:19;11.93;;;10.90;;
3066;SDS011;1544;48.834;9.194;2023-05-08T15:16:55;13.10;;;12.00;;
3066;SDS011;1544;48.834;9.194;2023-05-08T15:19:31;12.10;;;11.10;;
3066;SDS011;1544;48.834;9.194;2023-05-08T15:22:07;12.47;;;11.40;;
3066;SDS011;1544;48.834;9.194;2023-05-08T15:24:43;12.20;;;11.20;;
3066;SDS011;1544;48.834;9.194;2023-05-08T15:27:19;11.67;;;10.77;;
3066;SDS011;1544;48.834;9.194;2023-05-08T15:29:55;10.40;;;9.60;;
3066;SDS011;1544;48.834;9.194;2023-05-08T15:32:32;11.87;;;10.73;;
3066;SDS011;1544;48.834;9.194;2023-05-08T15:35:09;14.63;;;13.33;;
3066;SDS011;1544;48.834;9.194;2023-05-08T15:37:45;14.50;;;13.20;;
3066;SDS011;1544;48.834;9.194;2023-05-08T15:40:20;11.20;;;10.30;;
3066;SDS011;1544;48.834;9.194;2023-05-08T15:42:56;15.73;;;14.30;;
3066;SDS011;1544;48.834;9.194;2023-05-08T15:45:32;12.60;;;11.33;;
3066;SDS011;1544;48.834;9.194;2023-05-08T15:48:08;11.87;;;10.97;;
3066;SDS011;1544;48.834;9.194;2023-05-08T15:50:44;12.13;;;10.97;;
3066;SDS011;1544;48.834;9.194;2023-05-08T15:53:20;13.23;;;11.83;;
3066;SDS011;1544;48.834;9.194;2023-05-08T15:55:56;12.37;;;11.37;;
3066;SDS011;1544;48.834;9.194;2023-05-08T15:58:32;9.90;;;9.13;;
3066;SDS011;1544;48.834;9.194;2023-05-08T16:01:10;10.37;;;9.60;;
3066;SDS011;1544;48.834;9.194;2023-05-08T16:03:46;9.30;;;8.60;;
3066;SDS011;1544;48.834;9.194;2023-05-08T16:06:23;9.57;;;8.80;;
3066;SDS011;1544;48.834;9.194;2023-05-08T16:08:59;10.40;;;9.60;;
3066;SDS011;1544;48.834;9.194;2023-05-08T16:11:35;8.80;;;8.20;;
3066;SDS011;1544;48.834;9.194;2023-05-08T16:14:11;10.33;;;8.93;;
3066;SDS011;1544;48.834;9.194;2023-05-08T16:16:48;8.20;;;7.60;;
3066;SDS011;1544;48.834;9.194;2023-05-08T16:19:24;9.63;;;8.93;;
3066;SDS011;1544;48.834;9.194;2023-05-08T16:22:00;7.90;;;7.37;;
3066;SDS011;1544;48.834;9.194;2023-05-08T16:24:36;8.97;;;8.07;;
3066;SDS011;1544;48.834;9.194;2023-05-08T16:27:11;8.37;;;7.67;;
3066;SDS011;1544;48.834;9.194;2023-05-08T16:29:47;10.90;;;10.00;;
3066;SDS011;1544;48.834;9.194;2023-05-08T16:32:23;9.80;;;9.00;;
3066;SDS011;1544;48.834;9.194;2023-05-08T16:35:01;10.23;;;9.47;;
3066;SDS011;1544;48.834;9.194;2023-05-08T16:37:37;10.43;;;9.53;;
3066;SDS011;1544;48.834;9.194;2023-05-08T16:40:13;11.77;;;10.80;;
3066;SDS011;1544;48.834;9.194;2023-05-08T16:42:49;10.10;;;9.30;;
3066;SDS011;1544;48.834;9.194;2023-05-08T16:45:25;12.63;;;11.47;;
3066;SDS011;1544;48.834;9.194;2023-05-08T16:48:02;10.53;;;9.63;;
3066;SDS011;1544;48.834;9.194;2023-05-08T16:50:38;9.33;;;8.53;;
3066;SDS011;1544;48.834;9.194;2023-05-08T16:53:14;10.87;;;10.07;;
3066;SDS011;1544;48.834;9.194;2023-05-08T16:55:50;9.30;;;8.60;;